sensor_id;sensor_type;location;lat;lon;timestamp;P1;durP1;ratioP1;P2;durP2;ratioP2
46723;SDS011;32463;48.298;11.620;2023-06-10T00:00:43;11.50;;;5.90;;
46723;SDS011;32463;48.298;11.620;2023-06-10T00:03:10;8.05;;;5.70;;
46723;SDS011;32463;48.298;11.620;2023-06-10T00:05:37;7.72;;;6.13;;
46723;SDS011;32463;48.298;11.620;2023-06-10T00:08:04;8.35;;;6.30;;
46723;SDS011;32463;48.298;11.620;2023-06-10T00:10:34;7.40;;;6.00;;
46723;SDS011;32463;48.298;11.620;2023-06-10T00:13:02;8.07;;;6.55;;
46723;SDS011;32463;48.298;11.620;2023-06-10T00:15:30;7.88;;;5.97;;
46723;SDS011;32463;48.298;11.620;2023-06-10T00:17:56;8.27;;;6.15;;
46723;SDS011;32463;48.298;11.620;2023-06-10T00:20:23;8.88;;;6.63;;
46723;SDS011;32463;48.298;11.620;2023-06-10T00:22:50;8.60;;;6.43;;
46723;SDS011;32463;48.298;11.620;2023-06-10T00:25:17;8.77;;;6.32;;
46723;SDS011;32463;48.298;11.620;2023-06-10T00:27:44;7.45;;;6.18;;
46723;SDS011;32463;48.298;11.620;2023-06-10T00:30:10;8.80;;;6.60;;
46723;SDS011;32463;48.298;11.620;2023-06-10T00:32:38;8.13;;;7.07;;
46723;SDS011;32463;48.298;11.620;2023-06-10T00:35:05;8.45;;;6.57;;
46723;SDS011;32463;48.298;11.620;2023-06-10T00:37:32;9.07;;;7.32;;
46723;SDS011;32463;48.298;11.620;2023-06-10T00:40:00;7.82;;;6.53;;
46723;SDS011;32463;48.298;11.620;2023-06-10T00:42:26;8.65;;;7.15;;
46723;SDS011;32463;48.298;11.620;2023-06-10T00:44:54;9.02;;;7.25;;
46723;SDS011;32463;48.298;11.620;2023-06-10T00:47:21;8.88;;;7.28;;
46723;SDS011;32463;48.298;11.620;2023-06-10T00:49:48;10.57;;;7.32;;
46723;SDS011;32463;48.298;11.620;2023-06-10T00:52:16;8.25;;;7.32;;
46723;SDS011;32463;48.298;11.620;2023-06-10T00:54:44;9.60;;;7.22;;
46723;SDS011;32463;48.298;11.620;2023-06-10T00:57:11;8.98;;;7.15;;
46723;SDS011;32463;48.298;11.620;2023-06-10T00:59:42;8.77;;;6.82;;
46723;SDS011;32463;48.298;11.620;2023-06-10T01:02:13;8.18;;;6.97;;
46723;SDS011;32463;48.298;11.620;2023-06-10T01:04:39;8.15;;;6.70;;
46723;SDS011;32463;48.298;11.620;2023-06-10T01:07:19;7.88;;;6.43;;
46723;SDS011;32463;48.298;11.620;2023-06-10T01:10:01;9.15;;;7.50;;
46723;SDS011;32463;48.298;11.620;2023-06-10T01:12:35;8.57;;;6.97;;
46723;SDS011;32463;48.298;11.620;2023-06-10T01:15:08;10.27;;;7.20;;
46723;SDS011;32463;48.298;11.620;2023-06-10T01:17:37;10.07;;;7.65;;
46723;SDS011;32463;48.298;11.620;2023-06-10T01:20:19;8.40;;;7.13;;
46723;SDS011;32463;48.298;11.620;2023-06-10T01:22:46;10.98;;;7.15;;
46723;SDS011;32463;48.298;11.620;2023-06-10T01:25:13;10.52;;;7.65;;
46723;SDS011;32463;48.298;11.620;2023-06-10T01:27:39;10.27;;;7.25;;
46723;SDS011;32463;48.298;11.620;2023-06-10T01:30:10;9.13;;;7.45;;
46723;SDS011;32463;48.298;11.620;2023-06-10T01:32:40;10.65;;;7.43;;
46723;SDS011;32463;48.298;11.620;2023-06-10T01:35:11;8.18;;;7.15;;
46723;SDS011;32463;48.298;11.620;2023-06-10T01:37:39;8.82;;;7.55;;
46723;SDS011;32463;48.298;11.620;2023-06-10T01:40:09;9.45;;;7.57;;
46723;SDS011;32463;48.298;11.620;2023-06-10T01:42:37;8.85;;;7.60;;
46723;SDS011;32463;48.298;11.620;2023-06-10T01:45:03;9.85;;;7.45;;
46723;SDS011;32463;48.298;11.620;2023-06-10T01:47:30;10.20;;;8.23;;
46723;SDS011;32463;48.298;11.620;2023-06-10T01:49:57;10.93;;;8.57;;
46723;SDS011;32463;48.298;11.620;2023-06-10T01:52:24;10.43;;;7.82;;
46723;SDS011;32463;48.298;11.620;2023-06-10T01:54:51;9.15;;;7.22;;
46723;SDS011;32463;48.298;11.620;2023-06-10T01:57:18;9.50;;;7.50;;
46723;SDS011;32463;48.298;11.620;2023-06-10T01:59:44;9.80;;;7.75;;
46723;SDS011;32463;48.298;11.620;2023-06-10T02:02:11;10.15;;;8.20;;
46723;SDS011;32463;48.298;11.620;2023-06-10T02:04:38;8.50;;;7.32;;
46723;SDS011;32463;48.298;11.620;2023-06-10T02:07:04;9.48;;;7.93;;
46723;SDS011;32463;48.298;11.620;2023-06-10T02:09:31;10.20;;;8.30;;
46723;SDS011;32463;48.298;11.620;2023-06-10T02:12:00;10.13;;;8.05;;
46723;SDS011;32463;48.298;11.620;2023-06-10T02:14:31;10.43;;;8.02;;
46723;SDS011;32463;48.298;11.620;2023-06-10T02:16:58;10.88;;;8.32;;
46723;SDS011;32463;48.298;11.620;2023-06-10T02:19:25;9.10;;;8.00;;
46723;SDS011;32463;48.298;11.620;2023-06-10T02:21:52;11.75;;;8.77;;
46723;SDS011;32463;48.298;11.620;2023-06-10T02:24:19;10.43;;;8.77;;
46723;SDS011;32463;48.298;11.620;2023-06-10T02:26:45;10.10;;;8.82;;
46723;SDS011;32463;48.298;11.620;2023-06-10T02:29:13;10.13;;;8.88;;
46723;SDS011;32463;48.298;11.620;2023-06-10T02:31:40;13.77;;;9.05;;
46723;SDS011;32463;48.298;11.620;2023-06-10T02:34:06;11.32;;;8.60;;
46723;SDS011;32463;48.298;11.620;2023-06-10T02:36:32;11.50;;;9.35;;
46723;SDS011;32463;48.298;11.620;2023-06-10T02:39:01;10.98;;;8.73;;
46723;SDS011;32463;48.298;11.620;2023-06-10T02:41:28;9.75;;;8.45;;
46723;SDS011;32463;48.298;11.620;2023-06-10T02:43:54;12.85;;;9.23;;
46723;SDS011;32463;48.298;11.620;2023-06-10T02:46:21;13.68;;;10.05;;
46723;SDS011;32463;48.298;11.620;2023-06-10T02:48:47;11.75;;;10.13;;
46723;SDS011;32463;48.298;11.620;2023-06-10T02:51:16;11.23;;;9.27;;
46723;SDS011;32463;48.298;11.620;2023-06-10T02:53:43;12.00;;;9.98;;
46723;SDS011;32463;48.298;11.620;2023-06-10T02:56:09;10.88;;;8.75;;
46723;SDS011;32463;48.298;11.620;2023-06-10T02:58:37;10.50;;;8.90;;
46723;SDS011;32463;48.298;11.620;2023-06-10T03:01:04;12.35;;;9.68;;
46723;SDS011;32463;48.298;11.620;2023-06-10T03:03:30;12.85;;;9.25;;
46723;SDS011;32463;48.298;11.620;2023-06-10T03:05:58;11.10;;;9.30;;
46723;SDS011;32463;48.298;11.620;2023-06-10T03:08:25;12.82;;;9.63;;
46723;SDS011;32463;48.298;11.620;2023-06-10T03:10:51;11.65;;;10.10;;
46723;SDS011;32463;48.298;11.620;2023-06-10T03:13:18;13.18;;;9.68;;
46723;SDS011;32463;48.298;11.620;2023-06-10T03:15:44;16.15;;;11.23;;
46723;SDS011;32463;48.298;11.620;2023-06-10T03:18:11;11.90;;;10.05;;
46723;SDS011;32463;48.298;11.620;2023-06-10T03:20:38;12.70;;;9.85;;
46723;SDS011;32463;48.298;11.620;2023-06-10T03:23:05;11.52;;;9.15;;
46723;SDS011;32463;48.298;11.620;2023-06-10T03:25:32;10.90;;;9.20;;
46723;SDS011;32463;48.298;11.620;2023-06-10T03:27:58;10.82;;;9.32;;
46723;SDS011;32463;48.298;11.620;2023-06-10T03:30:25;12.63;;;9.20;;
46723;SDS011;32463;48.298;11.620;2023-06-10T03:32:51;18.08;;;11.20;;
46723;SDS011;32463;48.298;11.620;2023-06-10T03:35:18;13.60;;;10.23;;
46723;SDS011;32463;48.298;11.620;2023-06-10T03:37:44;12.85;;;9.77;;
46723;SDS011;32463;48.298;11.620;2023-06-10T03:40:11;13.40;;;10.73;;
46723;SDS011;32463;48.298;11.620;2023-06-10T03:42:37;12.65;;;10.25;;
46723;SDS011;32463;48.298;11.620;2023-06-10T03:45:04;12.38;;;10.57;;
46723;SDS011;32463;48.298;11.620;2023-06-10T03:47:34;24.73;;;11.68;;
46723;SDS011;32463;48.298;11.620;2023-06-10T03:50:01;13.73;;;11.45;;
46723;SDS011;32463;48.298;11.620;2023-06-10T03:52:28;14.07;;;10.93;;
46723;SDS011;32463;48.298;11.620;2023-06-10T03:54:55;14.68;;;10.95;;
46723;SDS011;32463;48.298;11.620;2023-06-10T03:57:22;14.25;;;10.73;;
46723;SDS011;32463;48.298;11.620;2023-06-10T03:59:48;12.48;;;10.52;;
46723;SDS011;32463;48.298;11.620;2023-06-10T04:02:14;12.27;;;10.23;;
46723;SDS011;32463;48.298;11.620;2023-06-10T04:04:41;13.93;;;10.63;;
46723;SDS011;32463;48.298;11.620;2023-06-10T04:07:07;13.02;;;10.38;;
46723;SDS011;32463;48.298;11.620;2023-06-10T04:09:34;12.65;;;9.90;;
46723;SDS011;32463;48.298;11.620;2023-06-10T04:12:01;16.42;;;10.68;;
46723;SDS011;32463;48.298;11.620;2023-06-10T04:14:31;11.75;;;10.10;;
46723;SDS011;32463;48.298;11.620;2023-06-10T04:16:58;14.07;;;10.80;;
46723;SDS011;32463;48.298;11.620;2023-06-10T04:19:25;13.98;;;10.38;;
46723;SDS011;32463;48.298;11.620;2023-06-10T04:21:51;14.75;;;10.95;;
46723;SDS011;32463;48.298;11.620;2023-06-10T04:24:18;12.43;;;10.25;;
46723;SDS011;32463;48.298;11.620;2023-06-10T04:26:44;11.40;;;9.95;;
46723;SDS011;32463;48.298;11.620;2023-06-10T04:29:11;15.55;;;9.88;;
46723;SDS011;32463;48.298;11.620;2023-06-10T04:31:37;10.50;;;9.07;;
46723;SDS011;32463;48.298;11.620;2023-06-10T04:34:03;11.55;;;8.98;;
46723;SDS011;32463;48.298;11.620;2023-06-10T04:36:30;12.90;;;9.07;;
46723;SDS011;32463;48.298;11.620;2023-06-10T04:38:57;11.15;;;8.77;;
46723;SDS011;32463;48.298;11.620;2023-06-10T04:41:23;9.98;;;8.60;;
46723;SDS011;32463;48.298;11.620;2023-06-10T04:43:50;13.00;;;9.00;;
46723;SDS011;32463;48.298;11.620;2023-06-10T04:46:17;12.75;;;9.40;;
46723;SDS011;32463;48.298;11.620;2023-06-10T04:48:44;13.48;;;9.35;;
46723;SDS011;32463;48.298;11.620;2023-06-10T04:51:12;11.60;;;8.82;;
46723;SDS011;32463;48.298;11.620;2023-06-10T04:53:38;12.40;;;8.80;;
46723;SDS011;32463;48.298;11.620;2023-06-10T04:56:06;10.40;;;8.60;;
46723;SDS011;32463;48.298;11.620;2023-06-10T04:58:33;10.73;;;9.32;;
46723;SDS011;32463;48.298;11.620;2023-06-10T05:01:00;12.23;;;9.00;;
46723;SDS011;32463;48.298;11.620;2023-06-10T05:03:27;12.43;;;9.43;;
46723;SDS011;32463;48.298;11.620;2023-06-10T05:05:53;30.17;;;21.27;;
46723;SDS011;32463;48.298;11.620;2023-06-10T05:08:19;12.98;;;10.48;;
46723;SDS011;32463;48.298;11.620;2023-06-10T05:10:46;14.70;;;9.45;;
46723;SDS011;32463;48.298;11.620;2023-06-10T05:13:12;11.73;;;9.85;;
46723;SDS011;32463;48.298;11.620;2023-06-10T05:15:39;11.00;;;8.95;;
46723;SDS011;32463;48.298;11.620;2023-06-10T05:18:09;11.68;;;9.68;;
46723;SDS011;32463;48.298;11.620;2023-06-10T05:20:36;12.63;;;9.48;;
46723;SDS011;32463;48.298;11.620;2023-06-10T05:23:02;14.77;;;9.57;;
46723;SDS011;32463;48.298;11.620;2023-06-10T05:25:32;11.93;;;9.20;;
46723;SDS011;32463;48.298;11.620;2023-06-10T05:28:00;10.32;;;9.10;;
46723;SDS011;32463;48.298;11.620;2023-06-10T05:30:26;12.38;;;8.93;;
46723;SDS011;32463;48.298;11.620;2023-06-10T05:32:53;11.20;;;9.35;;
46723;SDS011;32463;48.298;11.620;2023-06-10T05:35:21;13.75;;;9.63;;
46723;SDS011;32463;48.298;11.620;2023-06-10T05:37:47;10.30;;;8.90;;
46723;SDS011;32463;48.298;11.620;2023-06-10T05:40:14;12.88;;;10.18;;
46723;SDS011;32463;48.298;11.620;2023-06-10T05:42:40;11.68;;;9.40;;
46723;SDS011;32463;48.298;11.620;2023-06-10T05:45:07;12.15;;;8.88;;
46723;SDS011;32463;48.298;11.620;2023-06-10T05:47:34;11.18;;;9.00;;
46723;SDS011;32463;48.298;11.620;2023-06-10T05:50:00;13.02;;;9.20;;
46723;SDS011;32463;48.298;11.620;2023-06-10T05:52:27;12.30;;;9.10;;
46723;SDS011;32463;48.298;11.620;2023-06-10T05:54:53;11.45;;;9.50;;
46723;SDS011;32463;48.298;11.620;2023-06-10T05:57:20;12.70;;;10.13;;
46723;SDS011;32463;48.298;11.620;2023-06-10T05:59:47;11.13;;;8.23;;
46723;SDS011;32463;48.298;11.620;2023-06-10T06:02:14;9.45;;;7.82;;
46723;SDS011;32463;48.298;11.620;2023-06-10T06:04:40;9.88;;;8.10;;
46723;SDS011;32463;48.298;11.620;2023-06-10T06:07:07;10.63;;;8.48;;
46723;SDS011;32463;48.298;11.620;2023-06-10T06:09:33;11.85;;;8.85;;
46723;SDS011;32463;48.298;11.620;2023-06-10T06:11:59;12.05;;;9.05;;
46723;SDS011;32463;48.298;11.620;2023-06-10T06:14:26;11.10;;;8.57;;
46723;SDS011;32463;48.298;11.620;2023-06-10T06:16:52;13.48;;;9.20;;
46723;SDS011;32463;48.298;11.620;2023-06-10T06:19:19;13.20;;;9.13;;
46723;SDS011;32463;48.298;11.620;2023-06-10T06:21:45;11.10;;;8.88;;
46723;SDS011;32463;48.298;11.620;2023-06-10T06:24:11;11.02;;;8.98;;
46723;SDS011;32463;48.298;11.620;2023-06-10T06:26:38;11.57;;;9.25;;
46723;SDS011;32463;48.298;11.620;2023-06-10T06:29:04;9.93;;;8.43;;
46723;SDS011;32463;48.298;11.620;2023-06-10T06:31:31;11.13;;;8.88;;
46723;SDS011;32463;48.298;11.620;2023-06-10T06:33:57;13.32;;;9.55;;
46723;SDS011;32463;48.298;11.620;2023-06-10T06:36:24;14.10;;;8.90;;
46723;SDS011;32463;48.298;11.620;2023-06-10T06:38:50;11.00;;;9.10;;
46723;SDS011;32463;48.298;11.620;2023-06-10T06:41:17;9.80;;;8.38;;
46723;SDS011;32463;48.298;11.620;2023-06-10T06:43:43;11.18;;;9.27;;
46723;SDS011;32463;48.298;11.620;2023-06-10T06:46:10;11.73;;;8.80;;
46723;SDS011;32463;48.298;11.620;2023-06-10T06:48:37;10.57;;;8.45;;
46723;SDS011;32463;48.298;11.620;2023-06-10T06:51:03;9.88;;;8.82;;
46723;SDS011;32463;48.298;11.620;2023-06-10T06:53:31;10.02;;;8.35;;
46723;SDS011;32463;48.298;11.620;2023-06-10T06:55:57;10.15;;;8.55;;
46723;SDS011;32463;48.298;11.620;2023-06-10T06:58:25;10.48;;;8.27;;
46723;SDS011;32463;48.298;11.620;2023-06-10T07:00:51;10.95;;;8.93;;
46723;SDS011;32463;48.298;11.620;2023-06-10T07:03:17;10.65;;;8.23;;
46723;SDS011;32463;48.298;11.620;2023-06-10T07:05:44;9.57;;;8.15;;
46723;SDS011;32463;48.298;11.620;2023-06-10T07:08:10;9.70;;;8.70;;
46723;SDS011;32463;48.298;11.620;2023-06-10T07:10:37;11.23;;;8.73;;
46723;SDS011;32463;48.298;11.620;2023-06-10T07:13:03;9.45;;;7.43;;
46723;SDS011;32463;48.298;11.620;2023-06-10T07:15:30;10.48;;;8.27;;
46723;SDS011;32463;48.298;11.620;2023-06-10T07:17:57;11.13;;;8.80;;
46723;SDS011;32463;48.298;11.620;2023-06-10T07:20:24;9.02;;;8.05;;
46723;SDS011;32463;48.298;11.620;2023-06-10T07:22:50;11.00;;;7.90;;
46723;SDS011;32463;48.298;11.620;2023-06-10T07:25:17;11.02;;;8.07;;
46723;SDS011;32463;48.298;11.620;2023-06-10T07:27:43;61.85;;;30.85;;
46723;SDS011;32463;48.298;11.620;2023-06-10T07:30:09;16.55;;;9.90;;
46723;SDS011;32463;48.298;11.620;2023-06-10T07:32:36;9.52;;;7.65;;
46723;SDS011;32463;48.298;11.620;2023-06-10T07:35:03;14.27;;;8.15;;
46723;SDS011;32463;48.298;11.620;2023-06-10T07:37:32;9.32;;;7.72;;
46723;SDS011;32463;48.298;11.620;2023-06-10T07:39:58;11.02;;;8.07;;
46723;SDS011;32463;48.298;11.620;2023-06-10T07:42:24;17.65;;;8.10;;
46723;SDS011;32463;48.298;11.620;2023-06-10T07:44:51;8.75;;;7.40;;
46723;SDS011;32463;48.298;11.620;2023-06-10T07:47:17;9.50;;;7.65;;
46723;SDS011;32463;48.298;11.620;2023-06-10T07:49:44;9.65;;;8.02;;
46723;SDS011;32463;48.298;11.620;2023-06-10T07:52:10;9.25;;;7.18;;
46723;SDS011;32463;48.298;11.620;2023-06-10T07:54:37;10.02;;;7.43;;
46723;SDS011;32463;48.298;11.620;2023-06-10T07:57:03;8.77;;;7.50;;
46723;SDS011;32463;48.298;11.620;2023-06-10T07:59:31;8.48;;;7.22;;
46723;SDS011;32463;48.298;11.620;2023-06-10T08:01:58;8.93;;;6.88;;
46723;SDS011;32463;48.298;11.620;2023-06-10T08:04:24;8.90;;;7.22;;
46723;SDS011;32463;48.298;11.620;2023-06-10T08:06:51;8.98;;;7.40;;
46723;SDS011;32463;48.298;11.620;2023-06-10T08:09:17;8.25;;;7.18;;
46723;SDS011;32463;48.298;11.620;2023-06-10T08:12:04;8.52;;;6.50;;
46723;SDS011;32463;48.298;11.620;2023-06-10T08:14:32;9.70;;;7.00;;
46723;SDS011;32463;48.298;11.620;2023-06-10T08:16:59;11.35;;;8.43;;
46723;SDS011;32463;48.298;11.620;2023-06-10T08:19:25;7.13;;;6.22;;
46723;SDS011;32463;48.298;11.620;2023-06-10T08:21:51;6.38;;;5.72;;
46723;SDS011;32463;48.298;11.620;2023-06-10T08:24:18;8.27;;;5.60;;
46723;SDS011;32463;48.298;11.620;2023-06-10T08:26:45;7.05;;;5.45;;
46723;SDS011;32463;48.298;11.620;2023-06-10T08:29:11;6.53;;;4.95;;
46723;SDS011;32463;48.298;11.620;2023-06-10T08:31:41;8.48;;;4.70;;
46723;SDS011;32463;48.298;11.620;2023-06-10T08:34:10;9.52;;;4.93;;
46723;SDS011;32463;48.298;11.620;2023-06-10T08:36:37;8.10;;;5.50;;
46723;SDS011;32463;48.298;11.620;2023-06-10T08:39:03;6.95;;;5.78;;
46723;SDS011;32463;48.298;11.620;2023-06-10T08:41:30;9.70;;;5.65;;
46723;SDS011;32463;48.298;11.620;2023-06-10T08:44:17;6.67;;;5.70;;
46723;SDS011;32463;48.298;11.620;2023-06-10T08:46:58;7.68;;;6.07;;
46723;SDS011;32463;48.298;11.620;2023-06-10T08:49:27;12.25;;;7.03;;
46723;SDS011;32463;48.298;11.620;2023-06-10T08:52:00;12.40;;;5.82;;
46723;SDS011;32463;48.298;11.620;2023-06-10T08:54:30;13.32;;;11.93;;
46723;SDS011;32463;48.298;11.620;2023-06-10T08:56:59;10.52;;;8.30;;
46723;SDS011;32463;48.298;11.620;2023-06-10T08:59:30;7.53;;;5.93;;
46723;SDS011;32463;48.298;11.620;2023-06-10T09:01:58;6.35;;;4.85;;
46723;SDS011;32463;48.298;11.620;2023-06-10T09:04:25;5.82;;;4.95;;
46723;SDS011;32463;48.298;11.620;2023-06-10T09:06:53;6.07;;;4.78;;
46723;SDS011;32463;48.298;11.620;2023-06-10T09:09:20;6.53;;;5.80;;
46723;SDS011;32463;48.298;11.620;2023-06-10T09:11:49;4.68;;;4.05;;
46723;SDS011;32463;48.298;11.620;2023-06-10T09:14:16;6.47;;;5.00;;
46723;SDS011;32463;48.298;11.620;2023-06-10T09:16:42;8.05;;;4.93;;
46723;SDS011;32463;48.298;11.620;2023-06-10T09:19:11;6.20;;;5.05;;
46723;SDS011;32463;48.298;11.620;2023-06-10T09:21:38;6.97;;;4.97;;
46723;SDS011;32463;48.298;11.620;2023-06-10T09:24:05;5.55;;;4.95;;
46723;SDS011;32463;48.298;11.620;2023-06-10T09:26:32;6.70;;;5.45;;
46723;SDS011;32463;48.298;11.620;2023-06-10T09:29:03;6.18;;;5.22;;
46723;SDS011;32463;48.298;11.620;2023-06-10T09:31:34;5.85;;;5.07;;
46723;SDS011;32463;48.298;11.620;2023-06-10T09:34:08;8.25;;;5.40;;
46723;SDS011;32463;48.298;11.620;2023-06-10T09:36:37;5.50;;;5.00;;
46723;SDS011;32463;48.298;11.620;2023-06-10T09:39:04;7.43;;;5.22;;
46723;SDS011;32463;48.298;11.620;2023-06-10T09:41:40;8.85;;;6.05;;
46723;SDS011;32463;48.298;11.620;2023-06-10T09:44:14;14.35;;;11.82;;
46723;SDS011;32463;48.298;11.620;2023-06-10T09:46:45;6.10;;;5.50;;
46723;SDS011;32463;48.298;11.620;2023-06-10T09:49:13;6.03;;;5.30;;
46723;SDS011;32463;48.298;11.620;2023-06-10T09:51:49;9.48;;;5.53;;
46723;SDS011;32463;48.298;11.620;2023-06-10T09:54:19;6.10;;;5.00;;
46723;SDS011;32463;48.298;11.620;2023-06-10T09:56:47;6.55;;;4.72;;
46723;SDS011;32463;48.298;11.620;2023-06-10T09:59:15;5.82;;;4.82;;
46723;SDS011;32463;48.298;11.620;2023-06-10T10:01:41;5.63;;;4.78;;
46723;SDS011;32463;48.298;11.620;2023-06-10T10:04:08;7.18;;;5.07;;
46723;SDS011;32463;48.298;11.620;2023-06-10T10:06:34;6.75;;;4.85;;
46723;SDS011;32463;48.298;11.620;2023-06-10T10:09:02;6.20;;;4.35;;
46723;SDS011;32463;48.298;11.620;2023-06-10T10:11:30;7.18;;;5.00;;
46723;SDS011;32463;48.298;11.620;2023-06-10T10:14:00;5.47;;;4.53;;
46723;SDS011;32463;48.298;11.620;2023-06-10T10:16:32;9.10;;;4.57;;
46723;SDS011;32463;48.298;11.620;2023-06-10T10:21:52;6.65;;;4.05;;
46723;SDS011;32463;48.298;11.620;2023-06-10T10:24:22;5.05;;;4.18;;
46723;SDS011;32463;48.298;11.620;2023-06-10T10:26:52;5.30;;;4.10;;
46723;SDS011;32463;48.298;11.620;2023-06-10T10:29:30;5.15;;;4.03;;
46723;SDS011;32463;48.298;11.620;2023-06-10T10:31:59;5.00;;;3.72;;
46723;SDS011;32463;48.298;11.620;2023-06-10T10:34:30;5.65;;;3.30;;
46723;SDS011;32463;48.298;11.620;2023-06-10T10:37:03;4.95;;;4.28;;
46723;SDS011;32463;48.298;11.620;2023-06-10T10:39:30;4.95;;;3.83;;
46723;SDS011;32463;48.298;11.620;2023-06-10T10:41:57;4.78;;;4.00;;
46723;SDS011;32463;48.298;11.620;2023-06-10T10:44:24;5.25;;;4.05;;
46723;SDS011;32463;48.298;11.620;2023-06-10T10:46:51;5.47;;;4.53;;
46723;SDS011;32463;48.298;11.620;2023-06-10T10:49:19;5.57;;;4.35;;
46723;SDS011;32463;48.298;11.620;2023-06-10T10:51:58;5.00;;;4.50;;
46723;SDS011;32463;48.298;11.620;2023-06-10T10:54:34;5.35;;;4.43;;
46723;SDS011;32463;48.298;11.620;2023-06-10T10:59:43;5.65;;;4.30;;
46723;SDS011;32463;48.298;11.620;2023-06-10T11:02:17;4.55;;;4.00;;
46723;SDS011;32463;48.298;11.620;2023-06-10T11:04:45;6.80;;;4.20;;
46723;SDS011;32463;48.298;11.620;2023-06-10T11:07:13;5.93;;;4.43;;
46723;SDS011;32463;48.298;11.620;2023-06-10T11:09:57;5.75;;;3.88;;
46723;SDS011;32463;48.298;11.620;2023-06-10T11:12:24;7.47;;;3.78;;
46723;SDS011;32463;48.298;11.620;2023-06-10T11:14:54;4.55;;;3.58;;
46723;SDS011;32463;48.298;11.620;2023-06-10T11:17:21;9.48;;;4.10;;
46723;SDS011;32463;48.298;11.620;2023-06-10T11:19:48;4.63;;;3.58;;
46723;SDS011;32463;48.298;11.620;2023-06-10T11:22:17;4.18;;;3.35;;
46723;SDS011;32463;48.298;11.620;2023-06-10T11:24:47;6.43;;;5.32;;
46723;SDS011;32463;48.298;11.620;2023-06-10T11:27:16;4.18;;;3.58;;
46723;SDS011;32463;48.298;11.620;2023-06-10T11:32:25;3.95;;;3.25;;
46723;SDS011;32463;48.298;11.620;2023-06-10T11:34:56;4.00;;;3.45;;
46723;SDS011;32463;48.298;11.620;2023-06-10T11:37:23;4.10;;;3.55;;
46723;SDS011;32463;48.298;11.620;2023-06-10T11:39:53;6.53;;;3.78;;
46723;SDS011;32463;48.298;11.620;2023-06-10T11:42:21;7.78;;;4.72;;
46723;SDS011;32463;48.298;11.620;2023-06-10T11:44:48;7.60;;;3.38;;
46723;SDS011;32463;48.298;11.620;2023-06-10T11:47:19;4.85;;;4.10;;
46723;SDS011;32463;48.298;11.620;2023-06-10T11:49:56;5.10;;;3.60;;
46723;SDS011;32463;48.298;11.620;2023-06-10T11:52:27;5.30;;;3.38;;
46723;SDS011;32463;48.298;11.620;2023-06-10T11:54:54;4.55;;;3.08;;
46723;SDS011;32463;48.298;11.620;2023-06-10T11:57:21;4.63;;;3.38;;
46723;SDS011;32463;48.298;11.620;2023-06-10T11:59:47;5.25;;;3.60;;
46723;SDS011;32463;48.298;11.620;2023-06-10T12:02:15;5.15;;;4.20;;
46723;SDS011;32463;48.298;11.620;2023-06-10T12:04:43;9.88;;;4.20;;
46723;SDS011;32463;48.298;11.620;2023-06-10T12:07:16;5.63;;;4.22;;
46723;SDS011;32463;48.298;11.620;2023-06-10T12:09:47;5.57;;;4.07;;
46723;SDS011;32463;48.298;11.620;2023-06-10T12:12:24;4.28;;;3.40;;
46723;SDS011;32463;48.298;11.620;2023-06-10T12:20:02;4.40;;;3.22;;
46723;SDS011;32463;48.298;11.620;2023-06-10T12:22:37;3.45;;;3.10;;
46723;SDS011;32463;48.298;11.620;2023-06-10T12:25:05;5.57;;;3.30;;
46723;SDS011;32463;48.298;11.620;2023-06-10T12:27:32;3.25;;;2.95;;
46723;SDS011;32463;48.298;11.620;2023-06-10T12:30:02;3.90;;;3.05;;
46723;SDS011;32463;48.298;11.620;2023-06-10T12:35:03;4.68;;;3.63;;
46723;SDS011;32463;48.298;11.620;2023-06-10T12:37:30;5.50;;;3.63;;
46723;SDS011;32463;48.298;11.620;2023-06-10T12:39:59;6.05;;;4.82;;
46723;SDS011;32463;48.298;11.620;2023-06-10T12:42:27;4.70;;;3.67;;
46723;SDS011;32463;48.298;11.620;2023-06-10T12:44:55;9.40;;;4.65;;
46723;SDS011;32463;48.298;11.620;2023-06-10T12:47:33;5.77;;;3.60;;
46723;SDS011;32463;48.298;11.620;2023-06-10T12:50:03;5.28;;;4.65;;
46723;SDS011;32463;48.298;11.620;2023-06-10T12:52:30;6.75;;;3.88;;
46723;SDS011;32463;48.298;11.620;2023-06-10T12:54:57;4.50;;;3.65;;
46723;SDS011;32463;48.298;11.620;2023-06-10T12:57:25;4.93;;;3.20;;
46723;SDS011;32463;48.298;11.620;2023-06-10T12:59:52;5.20;;;3.42;;
46723;SDS011;32463;48.298;11.620;2023-06-10T13:02:18;4.47;;;3.90;;
46723;SDS011;32463;48.298;11.620;2023-06-10T13:04:46;4.95;;;3.67;;
46723;SDS011;32463;48.298;11.620;2023-06-10T13:07:13;4.72;;;3.83;;
46723;SDS011;32463;48.298;11.620;2023-06-10T13:09:40;5.47;;;4.25;;
46723;SDS011;32463;48.298;11.620;2023-06-10T13:12:06;3.92;;;3.38;;
46723;SDS011;32463;48.298;11.620;2023-06-10T13:14:33;5.38;;;3.55;;
46723;SDS011;32463;48.298;11.620;2023-06-10T13:17:00;5.95;;;3.90;;
46723;SDS011;32463;48.298;11.620;2023-06-10T13:19:26;3.97;;;3.58;;
46723;SDS011;32463;48.298;11.620;2023-06-10T13:21:53;4.65;;;3.20;;
46723;SDS011;32463;48.298;11.620;2023-06-10T13:24:19;3.92;;;3.10;;
46723;SDS011;32463;48.298;11.620;2023-06-10T13:26:46;3.83;;;3.25;;
46723;SDS011;32463;48.298;11.620;2023-06-10T13:29:13;15.15;;;13.40;;
46723;SDS011;32463;48.298;11.620;2023-06-10T13:31:40;5.05;;;3.72;;
46723;SDS011;32463;48.298;11.620;2023-06-10T13:34:07;10.95;;;6.65;;
46723;SDS011;32463;48.298;11.620;2023-06-10T13:36:34;6.93;;;3.38;;
46723;SDS011;32463;48.298;11.620;2023-06-10T13:39:00;3.78;;;2.97;;
46723;SDS011;32463;48.298;11.620;2023-06-10T13:41:27;6.13;;;3.30;;
46723;SDS011;32463;48.298;11.620;2023-06-10T13:43:54;5.60;;;3.35;;
46723;SDS011;32463;48.298;11.620;2023-06-10T13:46:21;3.50;;;3.20;;
46723;SDS011;32463;48.298;11.620;2023-06-10T13:48:48;4.80;;;3.10;;
46723;SDS011;32463;48.298;11.620;2023-06-10T13:51:14;6.20;;;3.20;;
46723;SDS011;32463;48.298;11.620;2023-06-10T13:53:41;4.38;;;3.28;;
46723;SDS011;32463;48.298;11.620;2023-06-10T13:56:07;5.72;;;2.63;;
46723;SDS011;32463;48.298;11.620;2023-06-10T13:58:34;5.07;;;3.05;;
46723;SDS011;32463;48.298;11.620;2023-06-10T14:01:04;7.22;;;2.78;;
46723;SDS011;32463;48.298;11.620;2023-06-10T14:03:31;4.50;;;2.63;;
46723;SDS011;32463;48.298;11.620;2023-06-10T14:05:57;4.93;;;3.03;;
46723;SDS011;32463;48.298;11.620;2023-06-10T14:08:24;3.28;;;2.70;;
46723;SDS011;32463;48.298;11.620;2023-06-10T14:10:50;4.40;;;2.58;;
46723;SDS011;32463;48.298;11.620;2023-06-10T14:13:17;2.88;;;2.30;;
46723;SDS011;32463;48.298;11.620;2023-06-10T14:15:44;2.63;;;2.13;;
46723;SDS011;32463;48.298;11.620;2023-06-10T14:18:11;2.78;;;2.30;;
46723;SDS011;32463;48.298;11.620;2023-06-10T14:20:38;2.75;;;2.30;;
46723;SDS011;32463;48.298;11.620;2023-06-10T14:23:04;3.50;;;2.65;;
46723;SDS011;32463;48.298;11.620;2023-06-10T14:25:31;6.93;;;2.60;;
46723;SDS011;32463;48.298;11.620;2023-06-10T14:27:57;2.80;;;2.50;;
46723;SDS011;32463;48.298;11.620;2023-06-10T14:30:24;5.72;;;2.55;;
46723;SDS011;32463;48.298;11.620;2023-06-10T14:32:51;6.47;;;2.83;;
46723;SDS011;32463;48.298;11.620;2023-06-10T14:35:17;4.20;;;2.80;;
46723;SDS011;32463;48.298;11.620;2023-06-10T14:37:44;3.35;;;2.70;;
46723;SDS011;32463;48.298;11.620;2023-06-10T14:40:10;3.33;;;2.70;;
46723;SDS011;32463;48.298;11.620;2023-06-10T14:42:37;4.82;;;2.95;;
46723;SDS011;32463;48.298;11.620;2023-06-10T14:45:04;3.65;;;2.97;;
46723;SDS011;32463;48.298;11.620;2023-06-10T14:47:31;3.65;;;3.10;;